createdAt,value
2019-04-11T00:01:33.992Z,17.17
2019-04-11T00:03:54.781Z,18.62
2019-04-11T00:06:25.677Z,19.52
2019-04-11T00:08:56.471Z,18.90
2019-04-11T00:11:28.164Z,18.60
2019-04-11T00:13:59.870Z,18.02
2019-04-11T00:16:31.578Z,20.37
2019-04-11T00:19:03.132Z,18.40
2019-04-11T00:21:34.917Z,18.90
2019-04-11T00:24:06.992Z,19.62
2019-04-11T00:26:40.185Z,20.85
2019-04-11T00:29:12.447Z,20.37
2019-04-11T00:31:43.193Z,20.62
2019-04-11T00:34:14.993Z,20.65
2019-04-11T00:36:46.337Z,20.65
2019-04-11T00:39:17.334Z,20.00
2019-04-11T00:41:48.265Z,20.35
2019-04-11T00:44:19.210Z,21.40
2019-04-11T00:46:50.812Z,22.50
2019-04-11T00:49:22.052Z,22.22
2019-04-11T00:51:52.970Z,22.25
2019-04-11T00:54:24.768Z,22.73
2019-04-11T00:56:56.675Z,23.57
2019-04-11T00:59:28.624Z,23.25
2019-04-11T01:01:58.906Z,23.32
2019-04-11T01:04:29.671Z,22.73
2019-04-11T01:07:00.706Z,22.67
2019-04-11T01:09:31.090Z,22.67
2019-04-11T01:12:02.623Z,26.33
2019-04-11T01:14:34.194Z,25.70
2019-04-11T01:17:18.056Z,28.40
2019-04-11T01:19:49.027Z,31.95
2019-04-11T01:22:20.233Z,33.55
2019-04-11T01:24:50.663Z,34.50
2019-04-11T01:27:21.626Z,33.92
2019-04-11T01:29:52.603Z,35.20
2019-04-11T01:32:22.893Z,33.50
2019-04-11T01:34:53.386Z,34.23
2019-04-11T01:37:23.951Z,30.72
2019-04-11T01:39:57.229Z,31.45
2019-04-11T01:42:27.621Z,31.02
2019-04-11T01:44:58.268Z,30.60
2019-04-11T01:47:33.495Z,27.35
2019-04-11T01:50:05.006Z,26.95
2019-04-11T01:52:36.190Z,24.85
2019-04-11T01:55:08.231Z,24.23
2019-04-11T01:57:38.706Z,25.15
2019-04-11T02:00:12.219Z,23.35
2019-04-11T02:02:50.786Z,22.73
2019-04-11T02:05:23.295Z,23.15
2019-04-11T02:07:53.521Z,29.15
2019-04-11T02:10:24.463Z,28.45
2019-04-11T02:12:55.379Z,28.57
2019-04-11T02:15:26.897Z,26.60
2019-04-11T02:17:59.028Z,25.10
2019-04-11T02:20:29.455Z,22.58
2019-04-11T02:23:01.020Z,22.40
2019-04-11T02:25:32.870Z,21.52
2019-04-11T02:28:06.561Z,22.05
2019-04-11T02:30:39.366Z,22.43
2019-04-11T02:33:11.691Z,21.10
2019-04-11T02:35:42.771Z,22.13
2019-04-11T02:38:14.929Z,21.20
2019-04-11T02:40:58.784Z,21.35
2019-04-11T02:43:29.609Z,21.23
2019-04-11T02:46:13.046Z,20.95
2019-04-11T02:48:33.190Z,20.43
2019-04-11T02:51:07.467Z,21.65
2019-04-11T02:53:38.920Z,21.55
2019-04-11T02:56:11.660Z,20.85
2019-04-11T02:58:41.916Z,21.43
2019-04-11T03:01:13.038Z,28.90
2019-04-11T03:03:45.531Z,30.15
2019-04-11T03:06:17.513Z,28.60
2019-04-11T03:08:48.935Z,25.92
2019-04-11T03:11:21.858Z,22.80
2019-04-11T03:13:55.100Z,21.95
2019-04-11T03:16:41.298Z,21.95
2019-04-11T03:19:19.798Z,21.52
2019-04-11T03:21:36.309Z,22.27
2019-04-11T03:24:06.337Z,21.77
2019-04-11T03:26:37.791Z,21.45
2019-04-11T03:29:09.103Z,21.20
2019-04-11T03:34:58.827Z,24.43
2019-04-11T03:39:37.518Z,22.25
2019-04-11T03:42:07.971Z,21.23
2019-04-11T03:44:29.193Z,20.32
2019-04-11T03:47:11.308Z,20.95
2019-04-11T03:49:36.653Z,21.37
2019-04-11T03:52:01.091Z,21.37
2019-04-11T03:54:31.860Z,20.50
2019-04-11T03:57:03.665Z,21.77
2019-04-11T03:59:36.649Z,19.85
2019-04-11T04:02:08.042Z,21.30
2019-04-11T04:04:39.321Z,21.25
2019-04-11T04:07:12.443Z,19.90
2019-04-11T04:09:43.985Z,20.77
2019-04-11T04:12:16.639Z,19.55
2019-04-11T04:14:49.538Z,20.32
2019-04-11T04:17:32.996Z,19.92
2019-04-11T04:20:15.158Z,19.55
2019-04-11T04:22:57.242Z,19.60
2019-04-11T04:25:28.594Z,18.55
2019-04-11T04:28:00.521Z,19.35
2019-04-11T04:30:31.255Z,19.73
2019-04-11T04:33:02.896Z,19.10
2019-04-11T04:35:33.898Z,19.17
2019-04-11T04:38:05.264Z,19.62
2019-04-11T04:40:51.062Z,19.23
2019-04-11T04:43:11.851Z,18.23
2019-04-11T04:45:58.072Z,18.77
2019-04-11T04:48:18.297Z,19.23
2019-04-11T04:50:46.787Z,19.85
2019-04-11T04:53:19.965Z,18.92
2019-04-11T04:55:52.183Z,20.37
2019-04-11T04:58:24.357Z,21.15
2019-04-11T05:00:56.713Z,19.98
2019-04-11T05:03:27.295Z,20.62
2019-04-11T05:06:00.859Z,19.40
2019-04-11T05:08:32.555Z,19.60
2019-04-11T05:11:04.521Z,20.02
2019-04-11T05:13:36.546Z,19.98
2019-04-11T05:16:16.841Z,20.60
2019-04-11T05:18:39.712Z,20.95
2019-04-11T05:21:10.728Z,19.75
2019-04-11T05:23:41.791Z,19.12
2019-04-11T05:26:11.969Z,20.40
2019-04-11T05:28:43.673Z,20.10
2019-04-11T05:31:14.544Z,20.55
2019-04-11T05:33:45.632Z,20.90
2019-04-11T05:36:16.608Z,20.35
2019-04-11T05:38:46.845Z,19.45
2019-04-11T05:41:17.705Z,20.08
2019-04-11T05:43:49.430Z,21.10
2019-04-11T05:46:31.368Z,20.55
2019-04-11T05:48:57.965Z,20.20
2019-04-11T05:51:26.429Z,20.10
2019-04-11T05:53:59.700Z,20.02
2019-04-11T05:56:33.426Z,20.17
2019-04-11T05:59:18.866Z,20.65
2019-04-11T06:01:55.013Z,20.37
2019-04-11T06:04:34.390Z,20.45
2019-04-11T06:07:13.134Z,37.98
2019-04-11T06:09:46.279Z,38.08
2019-04-11T06:12:22.407Z,22.50
2019-04-11T06:15:10.032Z,20.80
2019-04-11T06:17:43.576Z,19.20
2019-04-11T06:20:22.071Z,19.23
2019-04-11T06:23:06.691Z,18.25
2019-04-11T06:25:55.505Z,17.50
2019-04-11T06:28:27.657Z,17.27
2019-04-11T06:31:07.588Z,17.75
2019-04-11T06:33:40.702Z,19.12
2019-04-11T06:36:26.623Z,18.23
2019-04-11T06:39:02.906Z,17.57
2019-04-11T06:41:50.645Z,18.02
2019-04-11T06:44:28.073Z,16.48
2019-04-11T06:47:03.859Z,17.02
2019-04-11T06:49:53.035Z,15.85
2019-04-11T06:52:26.587Z,16.40
2019-04-11T06:55:08.803Z,15.55
2019-04-11T06:57:42.331Z,15.63
2019-04-11T07:00:34.153Z,14.90
2019-04-11T07:03:17.410Z,14.00
2019-04-11T07:05:40.641Z,12.10
2019-04-11T07:08:11.701Z,10.35
2019-04-11T07:10:44.700Z,9.38
2019-04-11T07:13:22.800Z,8.73
2019-04-11T07:15:54.735Z,8.25
2019-04-11T07:18:36.347Z,7.70
2019-04-11T07:21:08.484Z,7.40
2019-04-11T07:23:57.572Z,7.65
2019-04-11T07:26:30.062Z,6.37
2019-04-11T07:29:19.547Z,6.50
2019-04-11T07:32:11.548Z,9.50
2019-04-11T07:34:56.618Z,29.15
2019-04-11T07:37:32.635Z,9.35
2019-04-11T07:40:15.561Z,6.30
2019-04-11T07:42:52.797Z,4.28
2019-04-11T07:45:41.790Z,5.00
2019-04-11T07:48:15.026Z,4.60
2019-04-11T07:50:46.503Z,4.75
2019-04-11T07:53:19.745Z,5.10
2019-04-11T07:55:51.046Z,5.37
2019-04-11T07:58:26.400Z,5.78
2019-04-11T08:01:08.317Z,5.97
2019-04-11T08:03:57.926Z,6.40
2019-04-11T08:06:31.063Z,6.17
2019-04-11T08:09:09.759Z,5.95
2019-04-11T08:11:42.161Z,5.72
2019-04-11T08:14:14.527Z,5.40
2019-04-11T08:16:57.422Z,5.17
2019-04-11T08:19:35.875Z,5.10
2019-04-11T08:22:08.464Z,5.65
2019-04-11T08:24:50.984Z,5.20
2019-04-11T08:27:27.381Z,6.25
2019-04-11T08:30:00.327Z,5.75
2019-04-11T08:32:49.903Z,6.33
2019-04-11T08:35:26.259Z,6.95
2019-04-11T08:38:02.770Z,6.65
2019-04-11T08:40:35.765Z,7.53
2019-04-11T08:43:08.258Z,7.12
2019-04-11T08:45:40.474Z,8.75
2019-04-11T08:48:12.946Z,8.00
2019-04-11T08:50:45.374Z,7.75
2019-04-11T08:53:18.557Z,7.50
2019-04-11T08:56:01.912Z,6.35
2019-04-11T08:58:40.623Z,5.95
2019-04-11T09:01:16.328Z,6.25
2019-04-11T09:04:01.300Z,5.80
2019-04-11T09:06:25.254Z,5.87
2019-04-11T09:09:07.017Z,5.50
2019-04-11T09:11:40.613Z,5.95
2019-04-11T09:14:30.486Z,5.85
2019-04-11T09:17:14.712Z,6.25
2019-04-11T09:19:50.387Z,6.67
2019-04-11T09:22:33.254Z,5.25
2019-04-11T09:25:11.043Z,5.08
2019-04-11T09:27:58.738Z,5.80
2019-04-11T09:30:41.189Z,5.72
2019-04-11T09:33:25.978Z,5.92
2019-04-11T09:35:57.696Z,5.70
2019-04-11T09:38:30.574Z,6.30
2019-04-11T09:41:03.944Z,5.80
2019-04-11T09:43:36.333Z,6.65
2019-04-11T09:46:14.556Z,7.05
2019-04-11T09:48:50.528Z,6.58
2019-04-11T09:51:23.447Z,6.67
2019-04-11T09:54:06.169Z,6.70
2019-04-11T09:56:41.504Z,7.00
2019-04-11T09:59:17.027Z,6.80
2019-04-11T10:02:06.024Z,6.80
2019-04-11T10:04:39.260Z,6.60
2019-04-11T10:07:28.290Z,6.65
2019-04-11T10:10:04.420Z,6.80
2019-04-11T10:12:40.503Z,5.55
2019-04-11T10:15:13.593Z,5.83
2019-04-11T10:18:03.151Z,5.28
2019-04-11T10:20:35.249Z,4.92
2019-04-11T10:23:24.914Z,5.35
2019-04-11T10:25:57.013Z,5.08
2019-04-11T10:28:44.463Z,5.28
2019-04-11T10:31:15.113Z,5.00
2019-04-11T10:33:47.326Z,5.40
2019-04-11T10:36:25.598Z,5.47
2019-04-11T10:39:04.785Z,5.83
2019-04-11T10:41:39.951Z,5.50
2019-04-11T10:44:12.419Z,6.33
2019-04-11T10:46:53.742Z,6.08
2019-04-11T10:49:32.409Z,6.00
2019-04-11T10:52:20.391Z,6.35
2019-04-11T10:55:15.957Z,6.10
2019-04-11T10:57:48.732Z,5.95
2019-04-11T11:00:31.136Z,5.83
2019-04-11T11:03:04.052Z,5.65
2019-04-11T11:05:42.988Z,6.37
2019-04-11T11:08:17.346Z,6.40
2019-04-11T11:10:50.751Z,6.58
2019-04-11T11:13:40.770Z,6.58
2019-04-11T11:16:12.216Z,6.75
2019-04-11T11:19:32.280Z,6.37
2019-04-11T11:21:35.654Z,6.42
2019-04-11T11:24:28.205Z,5.60
2019-04-11T11:27:02.903Z,5.90
2019-04-11T11:29:35.033Z,5.65
2019-04-11T11:32:07.412Z,5.20
2019-04-11T11:34:40.798Z,5.42
2019-04-11T11:37:25.210Z,5.42
2019-04-11T11:40:02.733Z,5.58
2019-04-11T11:42:40.322Z,5.60
2019-04-11T11:45:13.158Z,5.60
2019-04-11T11:47:48.998Z,5.78
2019-04-11T11:50:23.280Z,5.10
2019-04-11T11:53:07.351Z,4.95
2019-04-11T11:55:45.317Z,5.12
2019-04-11T11:58:21.575Z,6.20
2019-04-11T12:00:55.565Z,14.55
2019-04-11T12:03:33.542Z,6.00
2019-04-11T12:06:07.130Z,4.67
2019-04-11T12:08:58.233Z,5.03
2019-04-11T12:11:30.262Z,4.12
2019-04-11T12:14:11.770Z,3.77
2019-04-11T12:17:04.727Z,2.90
2019-04-11T12:19:44.654Z,2.77
2019-04-11T12:22:06.230Z,3.08
2019-04-11T12:24:50.378Z,3.27
2019-04-11T12:27:22.588Z,3.45
2019-04-11T12:29:54.476Z,3.60
2019-04-11T12:32:30.458Z,3.83
2019-04-11T12:35:19.896Z,3.85
2019-04-11T12:37:53.354Z,3.10
2019-04-11T12:40:43.555Z,3.30
2019-04-11T12:43:15.084Z,2.87
2019-04-11T12:45:51.184Z,3.37
2019-04-11T12:48:22.620Z,2.90
2019-04-11T12:51:00.044Z,2.58
2019-04-11T12:53:30.662Z,2.80
2019-04-11T12:56:05.143Z,2.02
2019-04-11T12:58:36.883Z,1.92
2019-04-11T13:01:09.098Z,2.37
2019-04-11T13:03:50.009Z,2.65
2019-04-11T13:06:38.320Z,2.17
2019-04-11T13:09:14.273Z,2.40
2019-04-11T13:11:46.592Z,2.12
2019-04-11T13:14:30.952Z,2.20
2019-04-11T13:17:08.408Z,2.02
2019-04-11T13:20:04.704Z,7.80
2019-04-11T13:22:30.038Z,4.15
2019-04-11T13:25:07.998Z,2.08
2019-04-11T13:27:40.164Z,2.12
2019-04-11T13:30:15.648Z,2.62
2019-04-11T13:32:47.952Z,2.60
2019-04-11T13:35:23.177Z,2.37
2019-04-11T13:38:10.558Z,3.02
2019-04-11T13:40:45.754Z,2.95
2019-04-11T13:43:20.519Z,3.00
2019-04-11T13:45:55.883Z,2.60
2019-04-11T13:48:44.347Z,3.02
2019-04-11T13:51:19.916Z,2.40
2019-04-11T13:53:55.466Z,2.87
2019-04-11T13:56:27.642Z,2.90
2019-04-11T13:59:05.688Z,2.65
2019-04-11T14:01:37.793Z,3.20
2019-04-11T14:04:21.487Z,3.37
2019-04-11T14:06:52.430Z,3.00
2019-04-11T14:09:24.728Z,3.15
2019-04-11T14:11:55.540Z,3.25
2019-04-11T14:14:27.466Z,2.83
2019-04-11T14:16:59.580Z,3.12
2019-04-11T14:19:31.908Z,3.20
2019-04-11T14:22:02.826Z,3.50
2019-04-11T14:24:41.564Z,2.75
2019-04-11T14:27:15.224Z,2.83
2019-04-11T14:29:46.958Z,3.25
2019-04-11T14:32:19.082Z,3.20
2019-04-11T14:34:57.119Z,3.45
2019-04-11T14:37:38.904Z,3.50
2019-04-11T14:40:28.231Z,3.65
2019-04-11T14:43:16.131Z,3.80
2019-04-11T14:45:48.605Z,3.40
2019-04-11T14:48:37.824Z,3.27
2019-04-11T14:51:15.978Z,3.37
2019-04-11T14:54:03.832Z,3.30
2019-04-11T14:56:42.289Z,3.42
2019-04-11T14:59:30.879Z,3.08
2019-04-11T15:02:03.169Z,3.50
2019-04-11T15:04:43.686Z,3.70
2019-04-11T15:07:15.492Z,3.22
2019-04-11T15:09:47.843Z,3.33
2019-04-11T15:12:36.511Z,3.40
2019-04-11T15:15:19.787Z,3.27
2019-04-11T15:17:50.484Z,3.05
2019-04-11T15:20:34.817Z,3.20
2019-04-11T15:23:07.612Z,3.30
2019-04-11T15:25:45.627Z,4.33
2019-04-11T15:28:17.920Z,4.42
2019-04-11T15:30:53.461Z,3.70
2019-04-11T15:33:41.684Z,3.70
2019-04-11T15:36:27.861Z,4.17
2019-04-11T15:39:16.390Z,3.60
2019-04-11T15:41:48.716Z,4.40
2019-04-11T15:44:36.828Z,3.60
2019-04-11T15:47:18.802Z,3.50
2019-04-11T15:50:05.769Z,3.10
2019-04-11T15:52:37.944Z,2.75
2019-04-11T15:55:10.138Z,2.90
2019-04-11T15:57:43.023Z,2.87
2019-04-11T16:00:19.149Z,2.20
2019-04-11T16:03:03.574Z,2.55
2019-04-11T16:05:35.885Z,2.95
2019-04-11T16:08:11.245Z,2.70
2019-04-11T16:10:52.525Z,3.15
2019-04-11T16:13:41.660Z,2.95
2019-04-11T16:16:12.775Z,3.20
2019-04-11T16:19:00.227Z,2.92
2019-04-11T16:21:32.475Z,3.90
2019-04-11T16:24:04.749Z,4.05
2019-04-11T16:26:46.147Z,4.10
2019-04-11T16:29:24.162Z,3.67
2019-04-11T16:31:56.480Z,3.75
2019-04-11T16:34:28.118Z,4.30
2019-04-11T16:36:58.902Z,3.98
2019-04-11T16:39:33.007Z,3.80
2019-04-11T16:42:04.980Z,3.90
2019-04-11T16:44:54.700Z,3.85
2019-04-11T16:47:31.058Z,3.85
2019-04-11T16:50:01.094Z,3.80
2019-04-11T16:52:33.128Z,4.20
2019-04-11T16:55:03.880Z,4.12
2019-04-11T16:57:34.919Z,4.15
2019-04-11T17:00:09.836Z,3.62
2019-04-11T17:02:40.138Z,4.45
2019-04-11T17:05:12.068Z,3.87
2019-04-11T17:08:00.703Z,4.33
2019-04-11T17:10:48.979Z,4.55
2019-04-11T17:13:19.692Z,4.28
2019-04-11T17:15:49.848Z,4.80
2019-04-11T17:18:20.605Z,4.58
2019-04-11T17:20:51.231Z,5.10
2019-04-11T17:23:21.847Z,4.25
2019-04-11T17:25:53.589Z,4.40
2019-04-11T17:28:25.385Z,4.22
2019-04-11T17:30:56.062Z,4.03
2019-04-11T17:33:28.572Z,4.50
2019-04-11T17:36:01.991Z,4.03
2019-04-11T17:38:30.342Z,4.60
2019-04-11T17:41:00.523Z,5.20
2019-04-11T17:43:31.138Z,4.75
2019-04-11T17:46:01.179Z,4.28
2019-04-11T17:48:31.916Z,4.37
2019-04-11T17:51:04.910Z,4.87
2019-04-11T17:53:34.305Z,5.12
2019-04-11T17:56:05.311Z,4.97
2019-04-11T17:58:35.356Z,5.00
2019-04-11T18:01:07.454Z,7.15
2019-04-11T18:03:41.821Z,6.25
2019-04-11T18:06:10.509Z,5.58
2019-04-11T18:08:42.335Z,5.47
2019-04-11T18:11:13.003Z,6.30
2019-04-11T18:13:43.729Z,6.35
2019-04-11T18:16:14.391Z,6.58
2019-04-11T18:18:45.154Z,5.90
2019-04-11T18:21:15.854Z,6.25
2019-04-11T18:23:49.842Z,5.30
2019-04-11T18:26:19.035Z,5.15
2019-04-11T18:28:52.096Z,5.90
2019-04-11T18:31:25.018Z,6.00
2019-04-11T18:33:56.245Z,5.70
2019-04-11T18:36:27.017Z,5.67
2019-04-11T18:38:57.278Z,5.70
2019-04-11T18:41:28.036Z,6.55
2019-04-11T18:43:58.701Z,6.17
2019-04-11T18:46:28.801Z,6.22
2019-04-11T18:48:59.065Z,6.15
2019-04-11T18:51:30.410Z,6.17
2019-04-11T18:54:00.751Z,6.50
2019-04-11T18:56:31.565Z,6.50
2019-04-11T18:59:03.739Z,6.45
2019-04-11T19:01:38.878Z,7.15
2019-04-11T19:04:06.968Z,7.12
2019-04-11T19:06:37.710Z,7.70
2019-04-11T19:09:13.811Z,6.80
2019-04-11T19:11:43.901Z,7.10
2019-04-11T19:14:16.139Z,6.80
2019-04-11T19:16:47.471Z,6.55
2019-04-11T19:19:18.414Z,6.87
2019-04-11T19:21:51.134Z,6.45
2019-04-11T19:24:21.738Z,7.87
2019-04-11T19:26:52.084Z,6.50
2019-04-11T19:29:24.766Z,5.72
2019-04-11T19:31:54.485Z,5.78
2019-04-11T19:34:26.137Z,6.20
2019-04-11T19:36:56.796Z,5.92
2019-04-11T19:39:27.434Z,5.10
2019-04-11T19:41:57.544Z,5.47
2019-04-11T19:44:27.597Z,4.70
2019-04-11T19:49:33.781Z,5.30
2019-04-11T19:52:04.609Z,5.17
2019-04-11T19:54:34.694Z,6.25
2019-04-11T19:57:06.312Z,5.23
2019-04-11T19:59:36.257Z,5.47
2019-04-11T20:02:09.991Z,5.47
2019-04-11T20:04:40.933Z,5.40
2019-04-11T20:07:11.105Z,5.58
2019-04-11T20:09:41.228Z,5.78
2019-04-11T20:12:11.960Z,5.10
2019-04-11T20:14:41.912Z,5.62
2019-04-11T20:17:12.584Z,5.47
2019-04-11T20:19:42.544Z,5.45
2019-04-11T20:22:13.274Z,5.72
2019-04-11T20:24:46.734Z,6.62
2019-04-11T20:27:19.961Z,6.42
2019-04-11T20:29:51.006Z,6.05
2019-04-11T20:32:19.417Z,6.00
2019-04-11T20:34:50.869Z,6.90
2019-04-11T20:37:24.348Z,6.83
2019-04-11T20:39:53.890Z,7.08
2019-04-11T20:42:24.771Z,7.20
2019-04-11T20:44:58.256Z,7.35
2019-04-11T20:47:30.185Z,7.53
2019-04-11T20:50:07.296Z,8.15
2019-04-11T20:52:33.921Z,8.00
2019-04-11T20:55:08.864Z,8.93
2019-04-11T20:57:40.444Z,8.45
2019-04-11T21:00:12.306Z,8.30
2019-04-11T21:02:41.921Z,8.10
2019-04-11T21:05:12.689Z,8.83
2019-04-11T21:07:43.962Z,8.25
2019-04-11T21:10:14.634Z,8.73
2019-04-11T21:12:45.381Z,10.32
2019-04-11T21:15:15.474Z,10.15
2019-04-11T21:17:46.348Z,11.10
2019-04-11T21:20:16.362Z,11.20
2019-04-11T21:22:46.439Z,10.75
2019-04-11T21:25:16.417Z,11.10
2019-04-11T21:27:48.305Z,11.53
2019-04-11T21:30:18.588Z,11.85
2019-04-11T21:32:48.700Z,12.68
2019-04-11T21:35:19.265Z,11.70
2019-04-11T21:37:49.498Z,11.03
2019-04-11T21:40:20.117Z,12.40
2019-04-11T21:42:50.412Z,12.27
2019-04-11T21:45:21.036Z,12.43
2019-04-11T21:47:51.721Z,12.37
2019-04-11T21:50:22.885Z,13.43
2019-04-11T21:52:53.657Z,14.40
2019-04-11T21:55:23.616Z,12.88
2019-04-11T21:57:53.855Z,13.72
2019-04-11T22:00:28.444Z,13.25
2019-04-11T22:03:00.155Z,14.10
2019-04-11T22:05:30.312Z,13.93
2019-04-11T22:08:00.936Z,13.53
2019-04-11T22:10:33.369Z,14.13
2019-04-11T22:13:03.646Z,13.72
2019-04-11T22:15:33.891Z,14.40
2019-04-11T22:18:04.079Z,14.43
2019-04-11T22:20:34.250Z,14.60
2019-04-11T22:23:04.323Z,14.65
2019-04-11T22:25:34.429Z,15.15
2019-04-11T22:28:05.817Z,14.37
2019-04-11T22:30:35.968Z,15.50
2019-04-11T22:33:10.692Z,14.83
2019-04-11T22:35:42.252Z,16.15
2019-04-11T22:38:12.333Z,16.13
2019-04-11T22:40:42.318Z,15.38
2019-04-11T22:43:24.195Z,16.67
2019-04-11T22:45:46.361Z,15.75
2019-04-11T22:48:17.148Z,17.05
2019-04-11T22:50:47.139Z,15.85
2019-04-11T22:53:18.473Z,17.12
2019-04-11T22:55:48.540Z,17.10
2019-04-11T22:58:19.261Z,17.62
2019-04-11T23:00:51.651Z,19.27
2019-04-11T23:03:32.841Z,18.25
2019-04-11T23:06:03.416Z,17.48
2019-04-11T23:08:33.596Z,18.67
2019-04-11T23:11:03.967Z,18.40
2019-04-11T23:13:34.842Z,19.32
2019-04-11T23:16:05.123Z,17.40
2019-04-11T23:18:36.322Z,17.87
2019-04-11T23:21:06.381Z,18.60
2019-04-11T23:23:36.492Z,18.50
2019-04-11T23:26:06.543Z,18.47
2019-04-11T23:28:36.743Z,16.63
2019-04-11T23:31:07.331Z,17.50
2019-04-11T23:33:37.517Z,17.02
2019-04-11T23:36:09.067Z,17.50
2019-04-11T23:38:39.753Z,17.32
2019-04-11T23:41:09.824Z,17.37
2019-04-11T23:43:40.584Z,18.15
2019-04-11T23:46:11.242Z,18.27
2019-04-11T23:48:41.992Z,18.30
2019-04-11T23:51:12.168Z,18.60
2019-04-11T23:53:42.837Z,19.07
2019-04-11T23:56:13.001Z,18.62
2019-04-11T23:58:43.150Z,18.17
